sensor_id;sensor_type;location;lat;lon;timestamp;pressure;altitude;pressure_sealevel;temperature
10058;BMP180;5068;51.286;7.518;2022-07-18T00:01:05;100296.00;;;16.70
10058;BMP180;5068;51.286;7.518;2022-07-18T00:02:39;100295.00;;;16.70
10058;BMP180;5068;51.286;7.518;2022-07-18T00:04:13;100291.00;;;16.60
10058;BMP180;5068;51.286;7.518;2022-07-18T00:05:47;100285.00;;;16.60
10058;BMP180;5068;51.286;7.518;2022-07-18T00:07:20;100294.00;;;16.50
10058;BMP180;5068;51.286;7.518;2022-07-18T00:08:54;100293.00;;;16.40
10058;BMP180;5068;51.286;7.518;2022-07-18T00:10:27;100293.00;;;16.40
10058;BMP180;5068;51.286;7.518;2022-07-18T00:12:01;100292.00;;;16.40
10058;BMP180;5068;51.286;7.518;2022-07-18T00:13:35;100293.00;;;16.30
10058;BMP180;5068;51.286;7.518;2022-07-18T00:15:10;100290.00;;;16.30
10058;BMP180;5068;51.286;7.518;2022-07-18T00:16:43;100287.00;;;16.20
10058;BMP180;5068;51.286;7.518;2022-07-18T00:18:17;100292.00;;;16.10
10058;BMP180;5068;51.286;7.518;2022-07-18T00:19:50;100290.00;;;16.10
10058;BMP180;5068;51.286;7.518;2022-07-18T00:21:24;100285.00;;;16.00
10058;BMP180;5068;51.286;7.518;2022-07-18T00:22:58;100298.00;;;16.00
10058;BMP180;5068;51.286;7.518;2022-07-18T00:24:32;100294.00;;;15.90
10058;BMP180;5068;51.286;7.518;2022-07-18T00:26:05;100287.00;;;15.90
10058;BMP180;5068;51.286;7.518;2022-07-18T00:27:39;100288.00;;;15.90
10058;BMP180;5068;51.286;7.518;2022-07-18T00:29:14;100285.00;;;15.90
10058;BMP180;5068;51.286;7.518;2022-07-18T00:30:48;100288.00;;;15.80
10058;BMP180;5068;51.286;7.518;2022-07-18T00:32:21;100290.00;;;15.80
10058;BMP180;5068;51.286;7.518;2022-07-18T00:33:55;100282.00;;;15.80
10058;BMP180;5068;51.286;7.518;2022-07-18T00:35:29;100279.00;;;15.80
10058;BMP180;5068;51.286;7.518;2022-07-18T00:37:03;100286.00;;;15.80
10058;BMP180;5068;51.286;7.518;2022-07-18T00:38:36;100274.00;;;15.80
10058;BMP180;5068;51.286;7.518;2022-07-18T00:40:11;100278.00;;;15.70
10058;BMP180;5068;51.286;7.518;2022-07-18T00:41:48;100269.00;;;15.70
10058;BMP180;5068;51.286;7.518;2022-07-18T00:43:22;100265.00;;;15.60
10058;BMP180;5068;51.286;7.518;2022-07-18T00:44:57;100271.00;;;15.60
10058;BMP180;5068;51.286;7.518;2022-07-18T00:46:30;100264.00;;;15.50
10058;BMP180;5068;51.286;7.518;2022-07-18T00:48:05;100267.00;;;15.50
10058;BMP180;5068;51.286;7.518;2022-07-18T00:49:39;100260.00;;;15.50
10058;BMP180;5068;51.286;7.518;2022-07-18T00:51:13;100260.00;;;15.50
10058;BMP180;5068;51.286;7.518;2022-07-18T00:52:46;100261.00;;;15.50
10058;BMP180;5068;51.286;7.518;2022-07-18T00:54:20;100257.00;;;15.40
10058;BMP180;5068;51.286;7.518;2022-07-18T00:55:53;100249.00;;;15.30
10058;BMP180;5068;51.286;7.518;2022-07-18T00:57:27;100258.00;;;15.30
10058;BMP180;5068;51.286;7.518;2022-07-18T00:59:01;100254.00;;;15.20
10058;BMP180;5068;51.286;7.518;2022-07-18T01:00:39;100251.00;;;15.20
10058;BMP180;5068;51.286;7.518;2022-07-18T01:02:36;100247.00;;;15.10
10058;BMP180;5068;51.286;7.518;2022-07-18T01:04:16;100236.00;;;15.10
10058;BMP180;5068;51.286;7.518;2022-07-18T01:05:54;100246.00;;;15.10
10058;BMP180;5068;51.286;7.518;2022-07-18T01:07:34;100245.00;;;15.10
10058;BMP180;5068;51.286;7.518;2022-07-18T01:09:11;100245.00;;;15.10
10058;BMP180;5068;51.286;7.518;2022-07-18T01:10:47;100246.00;;;15.10
10058;BMP180;5068;51.286;7.518;2022-07-18T01:12:23;100239.00;;;15.00
10058;BMP180;5068;51.286;7.518;2022-07-18T01:14:00;100234.00;;;15.00
10058;BMP180;5068;51.286;7.518;2022-07-18T01:15:36;100237.00;;;15.00
10058;BMP180;5068;51.286;7.518;2022-07-18T01:17:17;100238.00;;;15.00
10058;BMP180;5068;51.286;7.518;2022-07-18T01:18:51;100245.00;;;14.90
10058;BMP180;5068;51.286;7.518;2022-07-18T01:20:29;100238.00;;;14.90
10058;BMP180;5068;51.286;7.518;2022-07-18T01:22:02;100238.00;;;14.80
10058;BMP180;5068;51.286;7.518;2022-07-18T01:23:36;100238.00;;;14.80
10058;BMP180;5068;51.286;7.518;2022-07-18T01:25:10;100243.00;;;14.80
10058;BMP180;5068;51.286;7.518;2022-07-18T01:26:44;100251.00;;;14.80
10058;BMP180;5068;51.286;7.518;2022-07-18T01:28:18;100246.00;;;14.80
10058;BMP180;5068;51.286;7.518;2022-07-18T01:29:53;100253.00;;;14.70
10058;BMP180;5068;51.286;7.518;2022-07-18T01:31:26;100253.00;;;14.70
10058;BMP180;5068;51.286;7.518;2022-07-18T01:33:03;100251.00;;;14.70
10058;BMP180;5068;51.286;7.518;2022-07-18T01:34:37;100248.00;;;14.70
10058;BMP180;5068;51.286;7.518;2022-07-18T01:36:13;100253.00;;;14.70
10058;BMP180;5068;51.286;7.518;2022-07-18T01:37:50;100245.00;;;14.70
10058;BMP180;5068;51.286;7.518;2022-07-18T01:39:24;100249.00;;;14.70
10058;BMP180;5068;51.286;7.518;2022-07-18T01:40:58;100248.00;;;14.70
10058;BMP180;5068;51.286;7.518;2022-07-18T01:42:32;100246.00;;;14.70
10058;BMP180;5068;51.286;7.518;2022-07-18T01:44:05;100248.00;;;14.70
10058;BMP180;5068;51.286;7.518;2022-07-18T01:45:39;100258.00;;;14.60
10058;BMP180;5068;51.286;7.518;2022-07-18T01:47:12;100258.00;;;14.60
10058;BMP180;5068;51.286;7.518;2022-07-18T01:48:46;100259.00;;;14.60
10058;BMP180;5068;51.286;7.518;2022-07-18T01:50:20;100259.00;;;14.60
10058;BMP180;5068;51.286;7.518;2022-07-18T01:51:54;100259.00;;;14.50
10058;BMP180;5068;51.286;7.518;2022-07-18T01:53:27;100261.00;;;14.50
10058;BMP180;5068;51.286;7.518;2022-07-18T01:55:02;100260.00;;;14.50
10058;BMP180;5068;51.286;7.518;2022-07-18T01:56:34;100257.00;;;14.50
10058;BMP180;5068;51.286;7.518;2022-07-18T01:58:07;100258.00;;;14.50
10058;BMP180;5068;51.286;7.518;2022-07-18T01:59:41;100258.00;;;14.50
10058;BMP180;5068;51.286;7.518;2022-07-18T02:01:16;100257.00;;;14.40
10058;BMP180;5068;51.286;7.518;2022-07-18T02:02:52;100248.00;;;14.40
10058;BMP180;5068;51.286;7.518;2022-07-18T02:04:26;100251.00;;;14.40
10058;BMP180;5068;51.286;7.518;2022-07-18T02:06:15;100256.00;;;14.30
10058;BMP180;5068;51.286;7.518;2022-07-18T02:07:50;100249.00;;;14.30
10058;BMP180;5068;51.286;7.518;2022-07-18T02:09:24;100253.00;;;14.30
10058;BMP180;5068;51.286;7.518;2022-07-18T02:10:58;100251.00;;;14.30
10058;BMP180;5068;51.286;7.518;2022-07-18T02:12:32;100244.00;;;14.30
10058;BMP180;5068;51.286;7.518;2022-07-18T02:14:05;100248.00;;;14.30
10058;BMP180;5068;51.286;7.518;2022-07-18T02:15:38;100247.00;;;14.30
10058;BMP180;5068;51.286;7.518;2022-07-18T02:17:11;100244.00;;;14.30
10058;BMP180;5068;51.286;7.518;2022-07-18T02:18:44;100245.00;;;14.30
10058;BMP180;5068;51.286;7.518;2022-07-18T02:20:18;100240.00;;;14.30
10058;BMP180;5068;51.286;7.518;2022-07-18T02:21:52;100251.00;;;14.30
10058;BMP180;5068;51.286;7.518;2022-07-18T02:23:26;100244.00;;;14.20
10058;BMP180;5068;51.286;7.518;2022-07-18T02:24:59;100246.00;;;14.20
10058;BMP180;5068;51.286;7.518;2022-07-18T02:26:32;100237.00;;;14.20
10058;BMP180;5068;51.286;7.518;2022-07-18T02:28:06;100233.00;;;14.20
10058;BMP180;5068;51.286;7.518;2022-07-18T02:29:40;100230.00;;;14.10
10058;BMP180;5068;51.286;7.518;2022-07-18T02:31:13;100234.00;;;14.10
10058;BMP180;5068;51.286;7.518;2022-07-18T02:32:47;100229.00;;;14.10
10058;BMP180;5068;51.286;7.518;2022-07-18T02:34:20;100235.00;;;14.10
10058;BMP180;5068;51.286;7.518;2022-07-18T02:35:53;100232.00;;;14.00
10058;BMP180;5068;51.286;7.518;2022-07-18T02:37:28;100235.00;;;14.00
10058;BMP180;5068;51.286;7.518;2022-07-18T02:39:03;100230.00;;;14.00
10058;BMP180;5068;51.286;7.518;2022-07-18T02:40:36;100234.00;;;14.00
10058;BMP180;5068;51.286;7.518;2022-07-18T02:42:10;100229.00;;;14.00
10058;BMP180;5068;51.286;7.518;2022-07-18T02:43:43;100227.00;;;14.00
10058;BMP180;5068;51.286;7.518;2022-07-18T02:45:16;100239.00;;;14.00
10058;BMP180;5068;51.286;7.518;2022-07-18T02:46:49;100235.00;;;14.00
10058;BMP180;5068;51.286;7.518;2022-07-18T02:48:22;100232.00;;;14.00
10058;BMP180;5068;51.286;7.518;2022-07-18T02:49:55;100241.00;;;14.00
10058;BMP180;5068;51.286;7.518;2022-07-18T02:51:28;100240.00;;;14.00
10058;BMP180;5068;51.286;7.518;2022-07-18T02:53:02;100242.00;;;13.90
10058;BMP180;5068;51.286;7.518;2022-07-18T02:54:39;100241.00;;;13.90
10058;BMP180;5068;51.286;7.518;2022-07-18T02:56:12;100241.00;;;13.90
10058;BMP180;5068;51.286;7.518;2022-07-18T02:57:46;100239.00;;;13.90
10058;BMP180;5068;51.286;7.518;2022-07-18T02:59:20;100238.00;;;13.90
10058;BMP180;5068;51.286;7.518;2022-07-18T03:01:44;100241.00;;;13.80
10058;BMP180;5068;51.286;7.518;2022-07-18T03:03:17;100233.00;;;13.80
10058;BMP180;5068;51.286;7.518;2022-07-18T03:04:52;100235.00;;;13.80
10058;BMP180;5068;51.286;7.518;2022-07-18T03:06:26;100230.00;;;13.80
10058;BMP180;5068;51.286;7.518;2022-07-18T03:07:58;100233.00;;;13.80
10058;BMP180;5068;51.286;7.518;2022-07-18T03:09:31;100229.00;;;13.80
10058;BMP180;5068;51.286;7.518;2022-07-18T03:11:08;100225.00;;;13.70
10058;BMP180;5068;51.286;7.518;2022-07-18T03:12:42;100233.00;;;13.70
10058;BMP180;5068;51.286;7.518;2022-07-18T03:14:15;100228.00;;;13.70
10058;BMP180;5068;51.286;7.518;2022-07-18T03:15:49;100230.00;;;13.70
10058;BMP180;5068;51.286;7.518;2022-07-18T03:17:22;100238.00;;;13.70
10058;BMP180;5068;51.286;7.518;2022-07-18T03:18:56;100238.00;;;13.70
10058;BMP180;5068;51.286;7.518;2022-07-18T03:20:29;100232.00;;;13.70
10058;BMP180;5068;51.286;7.518;2022-07-18T03:22:04;100229.00;;;13.70
10058;BMP180;5068;51.286;7.518;2022-07-18T03:23:38;100231.00;;;13.70
10058;BMP180;5068;51.286;7.518;2022-07-18T03:25:10;100223.00;;;13.70
10058;BMP180;5068;51.286;7.518;2022-07-18T03:26:49;100224.00;;;13.70
10058;BMP180;5068;51.286;7.518;2022-07-18T03:28:22;100218.00;;;13.70
10058;BMP180;5068;51.286;7.518;2022-07-18T03:29:56;100218.00;;;13.70
10058;BMP180;5068;51.286;7.518;2022-07-18T03:31:29;100229.00;;;13.70
10058;BMP180;5068;51.286;7.518;2022-07-18T03:33:03;100221.00;;;13.70
10058;BMP180;5068;51.286;7.518;2022-07-18T03:34:38;100218.00;;;13.70
10058;BMP180;5068;51.286;7.518;2022-07-18T03:36:11;100221.00;;;13.60
10058;BMP180;5068;51.286;7.518;2022-07-18T03:37:45;100216.00;;;13.60
10058;BMP180;5068;51.286;7.518;2022-07-18T03:39:18;100224.00;;;13.60
10058;BMP180;5068;51.286;7.518;2022-07-18T03:40:52;100218.00;;;13.60
10058;BMP180;5068;51.286;7.518;2022-07-18T03:42:27;100218.00;;;13.60
10058;BMP180;5068;51.286;7.518;2022-07-18T03:44:01;100215.00;;;13.50
10058;BMP180;5068;51.286;7.518;2022-07-18T03:45:34;100220.00;;;13.50
10058;BMP180;5068;51.286;7.518;2022-07-18T03:47:15;100216.00;;;13.50
10058;BMP180;5068;51.286;7.518;2022-07-18T03:48:49;100219.00;;;13.40
10058;BMP180;5068;51.286;7.518;2022-07-18T03:50:22;100219.00;;;13.40
10058;BMP180;5068;51.286;7.518;2022-07-18T03:51:56;100213.00;;;13.40
10058;BMP180;5068;51.286;7.518;2022-07-18T03:53:30;100211.00;;;13.40
10058;BMP180;5068;51.286;7.518;2022-07-18T03:55:04;100217.00;;;13.40
10058;BMP180;5068;51.286;7.518;2022-07-18T03:56:38;100223.00;;;13.40
10058;BMP180;5068;51.286;7.518;2022-07-18T03:58:12;100215.00;;;13.40
10058;BMP180;5068;51.286;7.518;2022-07-18T03:59:45;100211.00;;;13.40
10058;BMP180;5068;51.286;7.518;2022-07-18T04:01:18;100215.00;;;13.40
10058;BMP180;5068;51.286;7.518;2022-07-18T04:02:52;100213.00;;;13.40
10058;BMP180;5068;51.286;7.518;2022-07-18T04:04:25;100213.00;;;13.50
10058;BMP180;5068;51.286;7.518;2022-07-18T04:05:58;100213.00;;;13.50
10058;BMP180;5068;51.286;7.518;2022-07-18T04:07:32;100216.00;;;13.50
10058;BMP180;5068;51.286;7.518;2022-07-18T04:09:06;100213.00;;;13.50
10058;BMP180;5068;51.286;7.518;2022-07-18T04:10:39;100219.00;;;13.50
10058;BMP180;5068;51.286;7.518;2022-07-18T04:12:12;100213.00;;;13.50
10058;BMP180;5068;51.286;7.518;2022-07-18T04:13:46;100228.00;;;13.50
10058;BMP180;5068;51.286;7.518;2022-07-18T04:15:22;100226.00;;;13.50
10058;BMP180;5068;51.286;7.518;2022-07-18T04:16:55;100224.00;;;13.50
10058;BMP180;5068;51.286;7.518;2022-07-18T04:18:28;100226.00;;;13.50
10058;BMP180;5068;51.286;7.518;2022-07-18T04:20:11;100220.00;;;13.40
10058;BMP180;5068;51.286;7.518;2022-07-18T04:21:44;100227.00;;;13.40
10058;BMP180;5068;51.286;7.518;2022-07-18T04:23:18;100225.00;;;13.40
10058;BMP180;5068;51.286;7.518;2022-07-18T04:24:52;100223.00;;;13.40
10058;BMP180;5068;51.286;7.518;2022-07-18T04:26:25;100234.00;;;13.40
10058;BMP180;5068;51.286;7.518;2022-07-18T04:27:58;100227.00;;;13.40
10058;BMP180;5068;51.286;7.518;2022-07-18T04:29:33;100228.00;;;13.40
10058;BMP180;5068;51.286;7.518;2022-07-18T04:31:08;100231.00;;;13.50
10058;BMP180;5068;51.286;7.518;2022-07-18T04:32:42;100228.00;;;13.50
10058;BMP180;5068;51.286;7.518;2022-07-18T04:34:17;100238.00;;;13.50
10058;BMP180;5068;51.286;7.518;2022-07-18T04:35:51;100228.00;;;13.50
10058;BMP180;5068;51.286;7.518;2022-07-18T04:37:24;100226.00;;;13.40
10058;BMP180;5068;51.286;7.518;2022-07-18T04:38:57;100228.00;;;13.50
10058;BMP180;5068;51.286;7.518;2022-07-18T04:40:30;100226.00;;;13.50
10058;BMP180;5068;51.286;7.518;2022-07-18T04:42:04;100224.00;;;13.50
10058;BMP180;5068;51.286;7.518;2022-07-18T04:43:38;100228.00;;;13.50
10058;BMP180;5068;51.286;7.518;2022-07-18T04:45:13;100218.00;;;13.50
10058;BMP180;5068;51.286;7.518;2022-07-18T04:46:47;100223.00;;;13.50
10058;BMP180;5068;51.286;7.518;2022-07-18T04:48:21;100223.00;;;13.50
10058;BMP180;5068;51.286;7.518;2022-07-18T04:49:54;100225.00;;;13.60
10058;BMP180;5068;51.286;7.518;2022-07-18T04:51:28;100218.00;;;13.60
10058;BMP180;5068;51.286;7.518;2022-07-18T04:53:01;100218.00;;;13.60
10058;BMP180;5068;51.286;7.518;2022-07-18T04:54:35;100216.00;;;13.60
10058;BMP180;5068;51.286;7.518;2022-07-18T04:56:08;100216.00;;;13.60
10058;BMP180;5068;51.286;7.518;2022-07-18T04:57:42;100215.00;;;13.60
10058;BMP180;5068;51.286;7.518;2022-07-18T04:59:16;100213.00;;;13.60
10058;BMP180;5068;51.286;7.518;2022-07-18T05:00:51;100206.00;;;13.60
10058;BMP180;5068;51.286;7.518;2022-07-18T05:02:25;100210.00;;;13.60
10058;BMP180;5068;51.286;7.518;2022-07-18T05:03:59;100218.00;;;13.60
10058;BMP180;5068;51.286;7.518;2022-07-18T05:05:33;100207.00;;;13.70
10058;BMP180;5068;51.286;7.518;2022-07-18T05:07:08;100212.00;;;13.70
10058;BMP180;5068;51.286;7.518;2022-07-18T05:08:41;100217.00;;;13.70
10058;BMP180;5068;51.286;7.518;2022-07-18T05:10:17;100209.00;;;13.70
10058;BMP180;5068;51.286;7.518;2022-07-18T05:11:51;100217.00;;;13.80
10058;BMP180;5068;51.286;7.518;2022-07-18T05:13:25;100211.00;;;13.80
10058;BMP180;5068;51.286;7.518;2022-07-18T05:14:58;100211.00;;;13.80
10058;BMP180;5068;51.286;7.518;2022-07-18T05:16:36;100213.00;;;13.90
10058;BMP180;5068;51.286;7.518;2022-07-18T05:18:09;100203.00;;;13.90
10058;BMP180;5068;51.286;7.518;2022-07-18T05:19:43;100213.00;;;13.90
10058;BMP180;5068;51.286;7.518;2022-07-18T05:21:16;100213.00;;;14.00
10058;BMP180;5068;51.286;7.518;2022-07-18T05:22:50;100209.00;;;14.00
10058;BMP180;5068;51.286;7.518;2022-07-18T05:24:24;100201.00;;;14.00
10058;BMP180;5068;51.286;7.518;2022-07-18T05:25:58;100208.00;;;14.10
10058;BMP180;5068;51.286;7.518;2022-07-18T05:27:32;100203.00;;;14.10
10058;BMP180;5068;51.286;7.518;2022-07-18T05:29:06;100213.00;;;14.10
10058;BMP180;5068;51.286;7.518;2022-07-18T05:30:40;100208.00;;;14.20
10058;BMP180;5068;51.286;7.518;2022-07-18T05:32:14;100220.00;;;14.20
10058;BMP180;5068;51.286;7.518;2022-07-18T05:33:51;100215.00;;;14.30
10058;BMP180;5068;51.286;7.518;2022-07-18T05:35:25;100216.00;;;14.30
10058;BMP180;5068;51.286;7.518;2022-07-18T05:36:59;100206.00;;;14.40
10058;BMP180;5068;51.286;7.518;2022-07-18T05:38:32;100213.00;;;14.40
10058;BMP180;5068;51.286;7.518;2022-07-18T05:40:08;100211.00;;;14.50
10058;BMP180;5068;51.286;7.518;2022-07-18T05:41:41;100208.00;;;14.60
10058;BMP180;5068;51.286;7.518;2022-07-18T05:43:15;100207.00;;;14.60
10058;BMP180;5068;51.286;7.518;2022-07-18T05:44:48;100199.00;;;14.70
10058;BMP180;5068;51.286;7.518;2022-07-18T05:46:22;100199.00;;;14.70
10058;BMP180;5068;51.286;7.518;2022-07-18T05:47:56;100206.00;;;14.80
10058;BMP180;5068;51.286;7.518;2022-07-18T05:49:30;100203.00;;;14.90
10058;BMP180;5068;51.286;7.518;2022-07-18T05:51:05;100204.00;;;14.90
10058;BMP180;5068;51.286;7.518;2022-07-18T05:52:39;100185.00;;;15.00
10058;BMP180;5068;51.286;7.518;2022-07-18T05:54:12;100195.00;;;15.10
10058;BMP180;5068;51.286;7.518;2022-07-18T05:55:50;100190.00;;;15.10
10058;BMP180;5068;51.286;7.518;2022-07-18T05:57:23;100188.00;;;15.20
10058;BMP180;5068;51.286;7.518;2022-07-18T05:58:57;100184.00;;;15.30
10058;BMP180;5068;51.286;7.518;2022-07-18T06:00:31;100183.00;;;15.40
10058;BMP180;5068;51.286;7.518;2022-07-18T06:02:05;100192.00;;;15.40
10058;BMP180;5068;51.286;7.518;2022-07-18T06:03:40;100191.00;;;15.50
10058;BMP180;5068;51.286;7.518;2022-07-18T06:05:13;100184.00;;;15.60
10058;BMP180;5068;51.286;7.518;2022-07-18T06:06:54;100181.00;;;15.60
10058;BMP180;5068;51.286;7.518;2022-07-18T06:08:28;100180.00;;;15.70
10058;BMP180;5068;51.286;7.518;2022-07-18T06:10:02;100176.00;;;15.80
10058;BMP180;5068;51.286;7.518;2022-07-18T06:11:37;100174.00;;;15.80
10058;BMP180;5068;51.286;7.518;2022-07-18T06:13:10;100182.00;;;15.90
10058;BMP180;5068;51.286;7.518;2022-07-18T06:14:44;100178.00;;;16.00
10058;BMP180;5068;51.286;7.518;2022-07-18T06:16:18;100170.00;;;16.00
10058;BMP180;5068;51.286;7.518;2022-07-18T06:17:51;100176.00;;;16.10
10058;BMP180;5068;51.286;7.518;2022-07-18T06:19:27;100174.00;;;16.20
10058;BMP180;5068;51.286;7.518;2022-07-18T06:21:01;100172.00;;;16.20
10058;BMP180;5068;51.286;7.518;2022-07-18T06:22:34;100172.00;;;16.30
10058;BMP180;5068;51.286;7.518;2022-07-18T06:24:08;100178.00;;;16.40
10058;BMP180;5068;51.286;7.518;2022-07-18T06:25:42;100173.00;;;16.40
10058;BMP180;5068;51.286;7.518;2022-07-18T06:27:15;100166.00;;;16.50
10058;BMP180;5068;51.286;7.518;2022-07-18T06:28:49;100163.00;;;16.60
10058;BMP180;5068;51.286;7.518;2022-07-18T06:30:22;100161.00;;;16.70
10058;BMP180;5068;51.286;7.518;2022-07-18T06:31:56;100164.00;;;16.80
10058;BMP180;5068;51.286;7.518;2022-07-18T06:33:30;100156.00;;;16.90
10058;BMP180;5068;51.286;7.518;2022-07-18T06:35:07;100151.00;;;17.00
10058;BMP180;5068;51.286;7.518;2022-07-18T06:36:41;100150.00;;;17.10
10058;BMP180;5068;51.286;7.518;2022-07-18T06:38:15;100152.00;;;17.20
10058;BMP180;5068;51.286;7.518;2022-07-18T06:39:48;100143.00;;;17.20
10058;BMP180;5068;51.286;7.518;2022-07-18T06:41:21;100141.00;;;17.30
10058;BMP180;5068;51.286;7.518;2022-07-18T06:42:55;100140.00;;;17.40
10058;BMP180;5068;51.286;7.518;2022-07-18T06:44:30;100139.00;;;17.50
10058;BMP180;5068;51.286;7.518;2022-07-18T06:46:04;100142.00;;;17.70
10058;BMP180;5068;51.286;7.518;2022-07-18T06:47:38;100144.00;;;17.80
10058;BMP180;5068;51.286;7.518;2022-07-18T06:49:13;100140.00;;;17.90
10058;BMP180;5068;51.286;7.518;2022-07-18T06:50:49;100138.00;;;18.00
10058;BMP180;5068;51.286;7.518;2022-07-18T06:52:23;100133.00;;;18.10
10058;BMP180;5068;51.286;7.518;2022-07-18T06:53:57;100141.00;;;18.20
10058;BMP180;5068;51.286;7.518;2022-07-18T06:55:30;100147.00;;;18.40
10058;BMP180;5068;51.286;7.518;2022-07-18T06:57:04;100142.00;;;18.50
10058;BMP180;5068;51.286;7.518;2022-07-18T06:58:39;100138.00;;;18.60
10058;BMP180;5068;51.286;7.518;2022-07-18T07:00:14;100141.00;;;18.70
10058;BMP180;5068;51.286;7.518;2022-07-18T07:01:48;100140.00;;;18.80
10058;BMP180;5068;51.286;7.518;2022-07-18T07:03:22;100141.00;;;18.90
10058;BMP180;5068;51.286;7.518;2022-07-18T07:04:55;100128.00;;;19.00
10058;BMP180;5068;51.286;7.518;2022-07-18T07:06:31;100128.00;;;19.20
10058;BMP180;5068;51.286;7.518;2022-07-18T07:08:05;100138.00;;;19.30
10058;BMP180;5068;51.286;7.518;2022-07-18T07:09:38;100129.00;;;19.40
10058;BMP180;5068;51.286;7.518;2022-07-18T07:11:12;100138.00;;;19.50
10058;BMP180;5068;51.286;7.518;2022-07-18T07:12:50;100138.00;;;19.60
10058;BMP180;5068;51.286;7.518;2022-07-18T07:14:24;100131.00;;;19.70
10058;BMP180;5068;51.286;7.518;2022-07-18T07:15:57;100131.00;;;19.80
10058;BMP180;5068;51.286;7.518;2022-07-18T07:17:31;100132.00;;;19.90
10058;BMP180;5068;51.286;7.518;2022-07-18T07:19:04;100133.00;;;20.00
10058;BMP180;5068;51.286;7.518;2022-07-18T07:20:38;100137.00;;;20.10
10058;BMP180;5068;51.286;7.518;2022-07-18T07:22:13;100139.00;;;20.20
10058;BMP180;5068;51.286;7.518;2022-07-18T07:23:46;100135.00;;;20.30
10058;BMP180;5068;51.286;7.518;2022-07-18T07:25:23;100142.00;;;20.40
10058;BMP180;5068;51.286;7.518;2022-07-18T07:26:56;100142.00;;;20.50
10058;BMP180;5068;51.286;7.518;2022-07-18T07:28:30;100131.00;;;20.60
10058;BMP180;5068;51.286;7.518;2022-07-18T07:30:05;100135.00;;;20.70
10058;BMP180;5068;51.286;7.518;2022-07-18T07:31:38;100131.00;;;20.80
10058;BMP180;5068;51.286;7.518;2022-07-18T07:33:12;100130.00;;;21.00
10058;BMP180;5068;51.286;7.518;2022-07-18T07:34:45;100144.00;;;21.10
10058;BMP180;5068;51.286;7.518;2022-07-18T07:36:19;100129.00;;;21.20
10058;BMP180;5068;51.286;7.518;2022-07-18T07:37:57;100131.00;;;21.40
10058;BMP180;5068;51.286;7.518;2022-07-18T07:39:29;100126.00;;;21.50
10058;BMP180;5068;51.286;7.518;2022-07-18T07:41:03;100119.00;;;21.60
10058;BMP180;5068;51.286;7.518;2022-07-18T07:42:37;100119.00;;;21.80
10058;BMP180;5068;51.286;7.518;2022-07-18T07:44:11;100117.00;;;21.90
10058;BMP180;5068;51.286;7.518;2022-07-18T07:45:47;100120.00;;;22.10
10058;BMP180;5068;51.286;7.518;2022-07-18T07:47:23;100118.00;;;22.20
10058;BMP180;5068;51.286;7.518;2022-07-18T07:48:56;100111.00;;;22.30
10058;BMP180;5068;51.286;7.518;2022-07-18T07:50:29;100117.00;;;22.50
10058;BMP180;5068;51.286;7.518;2022-07-18T07:52:03;100106.00;;;22.70
10058;BMP180;5068;51.286;7.518;2022-07-18T07:53:39;100111.00;;;22.80
10058;BMP180;5068;51.286;7.518;2022-07-18T07:55:12;100111.00;;;23.00
10058;BMP180;5068;51.286;7.518;2022-07-18T07:56:46;100106.00;;;23.10
10058;BMP180;5068;51.286;7.518;2022-07-18T07:58:20;100104.00;;;23.20
10058;BMP180;5068;51.286;7.518;2022-07-18T07:59:54;100100.00;;;23.40
10058;BMP180;5068;51.286;7.518;2022-07-18T08:01:28;100102.00;;;23.50
10058;BMP180;5068;51.286;7.518;2022-07-18T08:03:04;100101.00;;;23.70
10058;BMP180;5068;51.286;7.518;2022-07-18T08:04:39;100100.00;;;23.90
10058;BMP180;5068;51.286;7.518;2022-07-18T08:06:12;100099.00;;;24.10
10058;BMP180;5068;51.286;7.518;2022-07-18T08:07:46;100095.00;;;24.30
10058;BMP180;5068;51.286;7.518;2022-07-18T08:09:21;100098.00;;;24.40
10058;BMP180;5068;51.286;7.518;2022-07-18T08:10:55;100101.00;;;24.60
10058;BMP180;5068;51.286;7.518;2022-07-18T08:12:28;100099.00;;;24.80
10058;BMP180;5068;51.286;7.518;2022-07-18T08:14:02;100100.00;;;25.00
10058;BMP180;5068;51.286;7.518;2022-07-18T08:15:36;100109.00;;;25.20
10058;BMP180;5068;51.286;7.518;2022-07-18T08:17:09;100100.00;;;25.30
10058;BMP180;5068;51.286;7.518;2022-07-18T08:18:43;100104.00;;;25.50
10058;BMP180;5068;51.286;7.518;2022-07-18T08:20:17;100108.00;;;25.70
10058;BMP180;5068;51.286;7.518;2022-07-18T08:21:50;100102.00;;;25.80
10058;BMP180;5068;51.286;7.518;2022-07-18T08:23:24;100101.00;;;26.00
10058;BMP180;5068;51.286;7.518;2022-07-18T08:24:58;100100.00;;;26.10
10058;BMP180;5068;51.286;7.518;2022-07-18T08:26:32;100100.00;;;26.30
10058;BMP180;5068;51.286;7.518;2022-07-18T08:28:08;100103.00;;;26.40
10058;BMP180;5068;51.286;7.518;2022-07-18T08:29:42;100104.00;;;26.60
10058;BMP180;5068;51.286;7.518;2022-07-18T08:31:35;100114.00;;;26.70
10058;BMP180;5068;51.286;7.518;2022-07-18T08:33:10;100112.00;;;26.90
10058;BMP180;5068;51.286;7.518;2022-07-18T08:34:43;100109.00;;;27.00
10058;BMP180;5068;51.286;7.518;2022-07-18T08:36:16;100101.00;;;27.20
10058;BMP180;5068;51.286;7.518;2022-07-18T08:37:52;100104.00;;;27.30
10058;BMP180;5068;51.286;7.518;2022-07-18T08:39:25;100112.00;;;27.40
10058;BMP180;5068;51.286;7.518;2022-07-18T08:41:01;100113.00;;;27.60
10058;BMP180;5068;51.286;7.518;2022-07-18T08:42:35;100111.00;;;27.70
10058;BMP180;5068;51.286;7.518;2022-07-18T08:44:29;100107.00;;;27.80
10058;BMP180;5068;51.286;7.518;2022-07-18T08:46:05;100109.00;;;28.00
10058;BMP180;5068;51.286;7.518;2022-07-18T08:47:40;100108.00;;;28.10
10058;BMP180;5068;51.286;7.518;2022-07-18T08:49:14;100103.00;;;28.20
10058;BMP180;5068;51.286;7.518;2022-07-18T08:50:49;100106.00;;;28.30
10058;BMP180;5068;51.286;7.518;2022-07-18T08:52:23;100108.00;;;28.40
10058;BMP180;5068;51.286;7.518;2022-07-18T08:54:17;100104.00;;;28.50
10058;BMP180;5068;51.286;7.518;2022-07-18T08:55:54;100105.00;;;28.60
10058;BMP180;5068;51.286;7.518;2022-07-18T08:57:29;100110.00;;;28.80
10058;BMP180;5068;51.286;7.518;2022-07-18T08:59:03;100104.00;;;28.90
10058;BMP180;5068;51.286;7.518;2022-07-18T09:00:37;100108.00;;;29.00
10058;BMP180;5068;51.286;7.518;2022-07-18T09:02:11;100102.00;;;29.10
10058;BMP180;5068;51.286;7.518;2022-07-18T09:03:45;100103.00;;;29.10
10058;BMP180;5068;51.286;7.518;2022-07-18T09:05:38;100109.00;;;29.20